Time;durP1;ratioP1;P1;durP2;ratioP2;P2;SDS_P1;SDS_P2;PMS_P1;PMS_P2;Temp;Humidity;BMP_temperature;BMP_pressure;BME280_temperature;BME280_humidity;BME280_pressure;Samples;Min_cycle;Max_cycle;Signal;HPM_P1;HPM_P2
2022/05/03 00:00:06;;;;;;;12.48;9.85;;;;;;;;;;5060025;28;20025;-79
2022/05/03 00:02:58;;;;;;;11.63;9.32;;;;;;;;;;5070428;28;20028;-81
2022/05/03 00:05:41;;;;;;;15.27;9.05;;;;;;;;;;5066239;28;20048;-79
2022/05/03 00:08:11;;;;;;;13.65;9.57;;;;;;;;;;5070128;28;20052;-79
2022/05/03 00:10:57;;;;;;;13.38;9.05;;;;;;;;;;5068919;28;20029;-80
2022/05/03 00:13:34;;;;;;;13.77;9.63;;;;;;;;;;5064255;28;20037;-80
2022/05/03 00:16:00;;;;;;;11.13;9.23;;;;;;;;;;5069565;28;20105;-80
2022/05/03 00:18:26;;;;;;;13.50;9.95;;;;;;;;;;5069954;28;20024;-80
2022/05/03 00:20:52;;;;;;;13.55;10.20;;;;;;;;;;5066414;28;20033;-80
2022/05/03 00:23:18;;;;;;;13.15;10.52;;;;;;;;;;5068518;28;20040;-80
2022/05/03 00:25:44;;;;;;;15.10;11.63;;;;;;;;;;5069051;28;20123;-80
2022/05/03 00:28:11;;;;;;;13.90;10.38;;;;;;;;;;5070083;28;20029;-79
2022/05/03 00:30:38;;;;;;;18.77;10.48;;;;;;;;;;5068946;28;20028;-79
2022/05/03 00:33:07;;;;;;;15.02;10.35;;;;;;;;;;5070366;28;20040;-79
2022/05/03 00:35:33;;;;;;;15.15;11.52;;;;;;;;;;5070680;28;20043;-80
2022/05/03 00:37:58;;;;;;;16.13;11.50;;;;;;;;;;5068981;28;20037;-79
2022/05/03 00:40:25;;;;;;;13.93;11.02;;;;;;;;;;5070444;28;20380;-80
2022/05/03 00:43:15;;;;;;;16.25;11.60;;;;;;;;;;5069491;28;20123;-80
2022/05/03 00:46:01;;;;;;;17.42;10.63;;;;;;;;;;5070606;28;20363;-78
2022/05/03 00:49:01;;;;;;;15.93;11.13;;;;;;;;;;5069891;28;20058;-80
2022/05/03 00:51:59;;;;;;;19.60;12.23;;;;;;;;;;5069914;28;20115;-80
2022/05/03 00:54:57;;;;;;;19.52;10.75;;;;;;;;;;5058987;28;20028;-79
2022/05/03 00:57:41;;;;;;;22.10;15.10;;;;;;;;;;5047945;28;20103;-78
2022/05/03 01:00:09;;;;;;;16.75;10.63;;;;;;;;;;5070030;28;20036;-81
2022/05/03 01:02:48;;;;;;;15.63;10.95;;;;;;;;;;5068904;28;20039;-80
2022/05/03 01:05:19;;;;;;;15.00;10.88;;;;;;;;;;5073294;28;20123;-79
2022/05/03 01:07:59;;;;;;;17.25;11.55;;;;;;;;;;5072360;28;20040;-80
2022/05/03 01:10:31;;;;;;;14.77;11.15;;;;;;;;;;5067184;28;20035;-78
2022/05/03 01:13:01;;;;;;;13.40;11.43;;;;;;;;;;5072034;28;20033;-79
2022/05/03 01:15:35;;;;;;;17.85;10.48;;;;;;;;;;5073742;28;20495;-79
2022/05/03 01:18:38;;;;;;;14.48;11.38;;;;;;;;;;5073052;28;20031;-80
2022/05/03 01:21:18;;;;;;;18.67;11.65;;;;;;;;;;5067094;28;20063;-80
2022/05/03 01:24:04;;;;;;;14.23;11.00;;;;;;;;;;5068999;28;20484;-80
2022/05/03 01:27:11;;;;;;;16.88;11.90;;;;;;;;;;5074668;28;20103;-80
2022/05/03 01:29:36;;;;;;;19.05;12.27;;;;;;;;;;5073467;28;20032;-79
2022/05/03 01:32:05;;;;;;;16.50;11.32;;;;;;;;;;5072337;28;20032;-79
2022/05/03 01:34:31;;;;;;;15.75;11.10;;;;;;;;;;5072912;28;20029;-80
2022/05/03 01:36:59;;;;;;;16.88;10.88;;;;;;;;;;5073262;28;20128;-79
2022/05/03 01:40:02;;;;;;;16.05;12.25;;;;;;;;;;5074212;28;20035;-79
2022/05/03 01:42:55;;;;;;;14.77;11.35;;;;;;;;;;5071741;28;20025;-80
2022/05/03 01:45:30;;;;;;;16.05;11.20;;;;;;;;;;5053158;28;20047;-79
2022/05/03 01:51:26;;;;;;;16.13;12.63;;;;;;;;;;5068100;28;20034;-79
2022/05/03 01:54:16;;;;;;;17.00;11.82;;;;;;;;;;5071538;28;20037;-79
2022/05/03 01:57:00;;;;;;;17.25;12.20;;;;;;;;;;5071520;28;20025;-79
2022/05/03 02:00:06;;;;;;;17.38;12.57;;;;;;;;;;5061742;28;20024;-80
2022/05/03 02:03:10;;;;;;;18.38;11.48;;;;;;;;;;5058934;28;20043;-79
2022/05/03 02:06:15;;;;;;;16.55;11.63;;;;;;;;;;5072448;28;20486;-81
2022/05/03 02:09:04;;;;;;;19.58;11.48;;;;;;;;;;5072608;28;20029;-80
2022/05/03 02:12:20;;;;;;;14.55;11.70;;;;;;;;;;5070975;28;20025;-79
2022/05/03 02:14:54;;;;;;;20.10;11.60;;;;;;;;;;5040135;28;20049;-80
2022/05/03 02:17:42;;;;;;;17.73;11.20;;;;;;;;;;5060403;28;20029;-79
2022/05/03 02:20:17;;;;;;;16.92;11.20;;;;;;;;;;5071617;28;20062;-79
2022/05/03 02:23:01;;;;;;;15.10;10.60;;;;;;;;;;5072080;28;20029;-79
2022/05/03 02:25:35;;;;;;;24.05;19.23;;;;;;;;;;5071298;28;20032;-80
2022/05/03 02:28:27;;;;;;;15.80;11.77;;;;;;;;;;5071275;28;20017;-78
2022/05/03 02:30:54;;;;;;;14.60;11.52;;;;;;;;;;5057352;28;20177;-81
2022/05/03 02:33:25;;;;;;;18.35;10.55;;;;;;;;;;5065883;28;20537;-77
2022/05/03 02:35:55;;;;;;;15.48;11.00;;;;;;;;;;5071350;28;20040;-80
2022/05/03 02:38:29;;;;;;;15.63;11.00;;;;;;;;;;5072382;28;20082;-79
2022/05/03 02:40:58;;;;;;;14.40;10.90;;;;;;;;;;5071661;28;20025;-80
2022/05/03 02:43:26;;;;;;;14.07;11.63;;;;;;;;;;5072280;28;20085;-80
2022/05/03 02:46:18;;;;;;;14.15;11.20;;;;;;;;;;5072581;28;20025;-83
2022/05/03 02:49:02;;;;;;;17.83;11.55;;;;;;;;;;5069798;28;20044;-80
2022/05/03 02:51:51;;;;;;;18.13;11.52;;;;;;;;;;5065930;28;20055;-79
2022/05/03 02:54:43;;;;;;;15.75;11.50;;;;;;;;;;5071686;28;20043;-80
2022/05/03 02:57:40;;;;;;;19.10;11.53;;;;;;;;;;5066923;28;20055;-78
2022/05/03 03:03:11;;;;;;;17.17;11.43;;;;;;;;;;5067348;28;20043;-79
2022/05/03 03:05:44;;;;;;;13.55;10.82;;;;;;;;;;5071070;28;20481;-79
2022/05/03 03:08:14;;;;;;;17.08;12.23;;;;;;;;;;5070196;28;20112;-79
2022/05/03 03:10:56;;;;;;;19.42;11.90;;;;;;;;;;5069449;28;20309;-79
2022/05/03 03:13:46;;;;;;;18.10;11.20;;;;;;;;;;5064843;28;20024;-80
2022/05/03 03:16:14;;;;;;;17.55;11.43;;;;;;;;;;5070112;28;20049;-79
2022/05/03 03:18:43;;;;;;;15.00;11.10;;;;;;;;;;5070746;28;20078;-78
2022/05/03 03:21:12;;;;;;;17.10;12.18;;;;;;;;;;5069078;28;20476;-80
2022/05/03 03:23:41;;;;;;;15.02;11.35;;;;;;;;;;5069924;28;20048;-79
2022/05/03 03:26:09;;;;;;;16.80;11.15;;;;;;;;;;5068819;28;20024;-79
2022/05/03 03:28:36;;;;;;;16.15;11.43;;;;;;;;;;5071275;28;20365;-79
2022/05/03 03:31:02;;;;;;;20.30;12.57;;;;;;;;;;5072006;28;20029;-79
2022/05/03 03:33:32;;;;;;;19.08;11.77;;;;;;;;;;5053892;28;20096;-78
2022/05/03 03:36:01;;;;;;;17.27;12.20;;;;;;;;;;5071008;28;20040;-79
2022/05/03 03:38:35;;;;;;;17.90;12.10;;;;;;;;;;5071549;28;20029;-80
2022/05/03 03:41:00;;;;;;;19.55;12.18;;;;;;;;;;5065528;28;20431;-80
2022/05/03 03:43:26;;;;;;;15.15;11.40;;;;;;;;;;5069218;28;20024;-80
2022/05/03 03:45:52;;;;;;;16.27;12.07;;;;;;;;;;5069825;28;20055;-80
2022/05/03 03:48:17;;;;;;;16.60;12.05;;;;;;;;;;5070407;28;20058;-80
2022/05/03 03:50:44;;;;;;;15.98;11.63;;;;;;;;;;5069744;28;20040;-79
2022/05/03 03:53:10;;;;;;;14.60;11.18;;;;;;;;;;5046472;28;20075;-78
2022/05/03 03:55:36;;;;;;;19.20;12.63;;;;;;;;;;5069991;28;20052;-80
2022/05/03 03:58:02;;;;;;;25.23;12.68;;;;;;;;;;5064536;28;20031;-81
2022/05/03 04:00:28;;;;;;;17.90;12.40;;;;;;;;;;5070454;28;20025;-81
2022/05/03 04:02:53;;;;;;;20.52;12.48;;;;;;;;;;5071025;28;20052;-79
2022/05/03 04:05:23;;;;;;;19.98;12.38;;;;;;;;;;5069494;28;20388;-80
2022/05/03 04:07:51;;;;;;;16.50;12.27;;;;;;;;;;5056204;28;20040;-79
2022/05/03 04:10:17;;;;;;;17.52;12.75;;;;;;;;;;5068769;28;20024;-80
2022/05/03 04:12:43;;;;;;;20.70;13.10;;;;;;;;;;5068468;28;20028;-80
2022/05/03 04:15:09;;;;;;;17.13;11.43;;;;;;;;;;5070372;28;20060;-79
2022/05/03 04:17:35;;;;;;;18.85;12.68;;;;;;;;;;5070290;28;20472;-79
2022/05/03 04:20:01;;;;;;;15.82;12.75;;;;;;;;;;5069827;28;20037;-80
2022/05/03 04:22:29;;;;;;;18.00;12.93;;;;;;;;;;5069048;28;20037;-79
2022/05/03 04:24:55;;;;;;;17.15;12.13;;;;;;;;;;5064532;28;20536;-79
2022/05/03 04:27:21;;;;;;;16.52;12.25;;;;;;;;;;5069755;28;20032;-80
2022/05/03 04:29:51;;;;;;;18.33;12.32;;;;;;;;;;5070324;28;20402;-78
2022/05/03 04:32:17;;;;;;;17.90;12.23;;;;;;;;;;5046185;28;20131;-81
2022/05/03 04:34:43;;;;;;;23.92;13.55;;;;;;;;;;5068897;28;20128;-80
2022/05/03 04:37:09;;;;;;;17.23;12.02;;;;;;;;;;5071636;28;20062;-79
2022/05/03 04:39:34;;;;;;;18.63;12.60;;;;;;;;;;5056814;28;20456;-80
2022/05/03 04:42:00;;;;;;;24.13;13.10;;;;;;;;;;5075097;28;20043;-79
2022/05/03 04:44:25;;;;;;;16.70;13.05;;;;;;;;;;5073268;28;20070;-78
2022/05/03 04:46:51;;;;;;;15.93;11.75;;;;;;;;;;5075172;28;20060;-80
2022/05/03 04:49:16;;;;;;;18.17;12.70;;;;;;;;;;5073124;28;20040;-79
2022/05/03 04:51:43;;;;;;;22.90;12.43;;;;;;;;;;5074550;28;20357;-80
2022/05/03 04:54:08;;;;;;;15.93;12.18;;;;;;;;;;5073897;28;20029;-79
2022/05/03 04:56:35;;;;;;;17.05;12.75;;;;;;;;;;5073869;28;20036;-79
2022/05/03 04:59:02;;;;;;;20.25;11.95;;;;;;;;;;5073192;28;20435;-79
2022/05/03 05:01:28;;;;;;;22.15;14.23;;;;;;;;;;5073752;28;20548;-80
2022/05/03 05:03:55;;;;;;;16.95;12.02;;;;;;;;;;5072660;28;20028;-79
2022/05/03 05:06:20;;;;;;;18.58;12.02;;;;;;;;;;5073923;28;20145;-79
2022/05/03 05:08:46;;;;;;;20.02;13.05;;;;;;;;;;5072586;28;20504;-81
2022/05/03 05:11:12;;;;;;;16.95;11.98;;;;;;;;;;5069638;28;20035;-79
2022/05/03 05:13:38;;;;;;;19.40;12.70;;;;;;;;;;5058244;28;20048;-78
2022/05/03 05:16:05;;;;;;;19.30;12.18;;;;;;;;;;5070828;28;20048;-79
2022/05/03 05:18:31;;;;;;;21.27;12.38;;;;;;;;;;5071400;28;20028;-79
2022/05/03 05:20:57;;;;;;;21.20;11.80;;;;;;;;;;5068464;28;20047;-82
2022/05/03 05:23:22;;;;;;;19.63;12.18;;;;;;;;;;5087620;28;20043;-78
2022/05/03 05:25:49;;;;;;;69.00;17.42;;;;;;;;;;5066341;28;20158;-80
2022/05/03 05:28:16;;;;;;;22.38;12.27;;;;;;;;;;5068728;28;20426;-81
2022/05/03 05:30:42;;;;;;;24.27;14.45;;;;;;;;;;5072015;28;20059;-79
2022/05/03 05:33:09;;;;;;;22.15;13.23;;;;;;;;;;5069624;28;20472;-80
2022/05/03 05:35:35;;;;;;;15.07;11.95;;;;;;;;;;5070712;28;20113;-80
2022/05/03 05:38:00;;;;;;;26.95;12.73;;;;;;;;;;5062796;28;20074;-79
2022/05/03 05:40:26;;;;;;;21.33;12.70;;;;;;;;;;5070932;28;20123;-80
2022/05/03 05:42:52;;;;;;;16.45;12.05;;;;;;;;;;5064698;28;20484;-80
2022/05/03 05:45:17;;;;;;;15.43;11.52;;;;;;;;;;5061995;28;20044;-81
2022/05/03 05:47:43;;;;;;;20.67;11.65;;;;;;;;;;5076361;28;20090;-82
2022/05/03 05:50:13;;;;;;;30.98;13.07;;;;;;;;;;5069299;28;20039;-83
2022/05/03 05:55:23;;;;;;;23.80;13.20;;;;;;;;;;5061657;28;20119;-83
2022/05/03 05:57:49;;;;;;;18.77;13.70;;;;;;;;;;5067894;28;20119;-82
2022/05/03 06:00:16;;;;;;;21.55;13.45;;;;;;;;;;5067596;28;20094;-80
2022/05/03 06:02:43;;;;;;;46.45;14.75;;;;;;;;;;5066754;28;20525;-79
2022/05/03 06:05:09;;;;;;;53.42;15.45;;;;;;;;;;5071023;28;20036;-81
2022/05/03 06:07:34;;;;;;;21.90;13.65;;;;;;;;;;5064479;28;20397;-78
2022/05/03 06:10:01;;;;;;;25.80;13.43;;;;;;;;;;5067155;28;20434;-79
2022/05/03 06:12:27;;;;;;;25.40;14.50;;;;;;;;;;5069869;28;20063;-77
2022/05/03 06:14:52;;;;;;;19.70;13.13;;;;;;;;;;5066343;28;20507;-79
2022/05/03 06:17:18;;;;;;;44.75;23.52;;;;;;;;;;5068885;28;20103;-79
2022/05/03 06:19:44;;;;;;;18.83;13.27;;;;;;;;;;5071683;28;20498;-79
2022/05/03 06:22:10;;;;;;;18.17;13.38;;;;;;;;;;5065075;28;20044;-78
2022/05/03 06:24:38;;;;;;;23.15;13.80;;;;;;;;;;5056808;28;20092;-79
2022/05/03 06:27:04;;;;;;;21.92;13.82;;;;;;;;;;5069247;28;20028;-80
2022/05/03 06:29:32;;;;;;;23.92;13.65;;;;;;;;;;5061375;28;20056;-76
2022/05/03 06:32:02;;;;;;;22.77;13.82;;;;;;;;;;5059756;28;20123;-79
2022/05/03 06:34:27;;;;;;;22.75;14.07;;;;;;;;;;5066675;28;20055;-80
2022/05/03 06:36:53;;;;;;;76.40;16.67;;;;;;;;;;5065043;28;20041;-79
2022/05/03 06:39:18;;;;;;;20.27;14.27;;;;;;;;;;5068912;28;20062;-80
2022/05/03 06:41:44;;;;;;;17.17;13.32;;;;;;;;;;5062268;28;20035;-79
2022/05/03 06:44:09;;;;;;;19.05;14.52;;;;;;;;;;5066236;28;20035;-79
2022/05/03 06:46:35;;;;;;;17.35;13.40;;;;;;;;;;5061439;28;20491;-81
2022/05/03 06:49:04;;;;;;;24.45;13.32;;;;;;;;;;5066103;28;20060;-80
2022/05/03 06:51:30;;;;;;;25.77;12.68;;;;;;;;;;5062475;28;20041;-78
2022/05/03 06:53:56;;;;;;;18.55;13.70;;;;;;;;;;5064537;28;20040;-80
2022/05/03 06:56:22;;;;;;;22.58;14.00;;;;;;;;;;5061860;28;20025;-82
2022/05/03 06:59:08;;;;;;;29.33;15.60;;;;;;;;;;5060663;28;20997;-77
2022/05/03 07:01:34;;;;;;;24.02;13.50;;;;;;;;;;5058827;28;20048;-80
2022/05/03 07:03:59;;;;;;;22.65;15.50;;;;;;;;;;5063819;28;20460;-81
2022/05/03 07:06:25;;;;;;;20.45;14.00;;;;;;;;;;5058015;28;20033;-79
2022/05/03 07:08:51;;;;;;;21.40;14.85;;;;;;;;;;5066821;28;20029;-77
2022/05/03 07:11:16;;;;;;;25.73;15.15;;;;;;;;;;5068160;28;20120;-79
2022/05/03 07:13:43;;;;;;;30.08;16.27;;;;;;;;;;5066832;28;20024;-80
2022/05/03 07:16:09;;;;;;;19.67;14.40;;;;;;;;;;5063498;28;20052;-79
2022/05/03 07:24:08;;;;;;;22.17;15.23;;;;;;;;;;5066083;28;20066;-80
2022/05/03 07:26:34;;;;;;;24.30;14.75;;;;;;;;;;5064028;28;20074;-81
2022/05/03 07:28:59;;;;;;;38.25;17.15;;;;;;;;;;5054663;28;20410;-79
2022/05/03 07:31:25;;;;;;;19.67;16.58;;;;;;;;;;5064525;28;20584;-82
2022/05/03 07:33:53;;;;;;;24.40;17.05;;;;;;;;;;5064844;28;20052;-83
2022/05/03 07:36:20;;;;;;;24.92;15.23;;;;;;;;;;5060913;28;20036;-83
2022/05/03 07:38:48;;;;;;;26.02;16.50;;;;;;;;;;5048119;28;20029;-79
2022/05/03 07:41:14;;;;;;;28.40;16.52;;;;;;;;;;5063177;28;20040;-79
2022/05/03 07:43:40;;;;;;;25.00;17.33;;;;;;;;;;5067648;28;20043;-79
2022/05/03 07:46:05;;;;;;;22.92;16.10;;;;;;;;;;5067862;28;20291;-81
2022/05/03 07:48:32;;;;;;;27.63;17.60;;;;;;;;;;5059485;28;20084;-81
2022/05/03 07:50:58;;;;;;;23.75;16.58;;;;;;;;;;5060345;28;20032;-81
2022/05/03 07:53:24;;;;;;;29.75;18.05;;;;;;;;;;5063167;28;20028;-79
2022/05/03 07:55:50;;;;;;;31.23;18.52;;;;;;;;;;5060066;28;20071;-78
2022/05/03 07:58:21;;;;;;;25.60;16.63;;;;;;;;;;5066752;28;20020;-79
2022/05/03 08:00:48;;;;;;;26.00;16.75;;;;;;;;;;5057932;28;20048;-77
2022/05/03 08:03:14;;;;;;;28.33;16.55;;;;;;;;;;5060805;28;20495;-81
2022/05/03 08:05:41;;;;;;;24.33;17.25;;;;;;;;;;5065623;28;20024;-81
2022/05/03 08:08:06;;;;;;;21.38;15.50;;;;;;;;;;5061743;28;20033;-80
2022/05/03 08:10:32;;;;;;;30.27;15.13;;;;;;;;;;5062363;28;20096;-79
2022/05/03 08:12:58;;;;;;;22.35;15.85;;;;;;;;;;5058690;28;20557;-82
2022/05/03 08:15:26;;;;;;;19.80;15.13;;;;;;;;;;5065209;28;20052;-84
2022/05/03 08:17:55;;;;;;;20.38;15.38;;;;;;;;;;5064468;28;20056;-83
2022/05/03 08:20:21;;;;;;;23.20;14.98;;;;;;;;;;5062036;28;20056;-81
2022/05/03 08:23:04;;;;;;;29.35;15.38;;;;;;;;;;5060740;28;20563;-82
2022/05/03 08:25:32;;;;;;;23.02;14.73;;;;;;;;;;5057550;28;20031;-82
2022/05/03 08:27:58;;;;;;;21.85;14.43;;;;;;;;;;5066942;28;20029;-83
2022/05/03 08:30:28;;;;;;;26.83;14.25;;;;;;;;;;5067180;28;20036;-80
2022/05/03 08:32:53;;;;;;;19.02;14.23;;;;;;;;;;5068163;28;20024;-81
2022/05/03 08:35:21;;;;;;;22.23;13.85;;;;;;;;;;5067494;28;20039;-82
2022/05/03 08:43:21;;;;;;;21.05;13.48;;;;;;;;;;5067159;28;20032;-81
2022/05/03 08:45:50;;;;;;;18.20;12.60;;;;;;;;;;5066212;28;20036;-79
2022/05/03 08:48:29;;;;;;;30.83;13.02;;;;;;;;;;5062439;28;20478;-80
2022/05/03 08:50:55;;;;;;;18.40;12.93;;;;;;;;;;5065821;28;20050;-82
2022/05/03 08:53:21;;;;;;;24.05;12.90;;;;;;;;;;5065651;28;20081;-82
2022/05/03 08:55:50;;;;;;;23.92;12.68;;;;;;;;;;5067379;28;20036;-82
2022/05/03 08:58:18;;;;;;;22.45;12.60;;;;;;;;;;5063394;28;20376;-82
2022/05/03 09:00:43;;;;;;;18.48;12.77;;;;;;;;;;5048455;28;20045;-81
2022/05/03 09:03:09;;;;;;;19.33;11.13;;;;;;;;;;5060895;28;20039;-81
2022/05/03 09:05:35;;;;;;;17.33;12.50;;;;;;;;;;5067069;28;20028;-79
2022/05/03 09:08:01;;;;;;;17.55;11.00;;;;;;;;;;5061808;28;20028;-79
2022/05/03 09:10:32;;;;;;;17.15;10.98;;;;;;;;;;5062310;28;20115;-79
2022/05/03 09:13:29;;;;;;;13.82;11.13;;;;;;;;;;5064549;28;20032;-81
2022/05/03 09:15:57;;;;;;;20.13;12.02;;;;;;;;;;5059113;28;20516;-79
2022/05/03 09:18:26;;;;;;;17.10;11.43;;;;;;;;;;5058868;28;20035;-81
2022/05/03 09:23:49;;;;;;;15.88;11.23;;;;;;;;;;5065883;28;20600;-80
2022/05/03 09:26:18;;;;;;;33.42;13.88;;;;;;;;;;5064177;28;20039;-80
2022/05/03 09:29:03;;;;;;;18.33;11.07;;;;;;;;;;5071961;28;20033;-82
2022/05/03 09:31:41;;;;;;;15.40;11.80;;;;;;;;;;5065918;28;20507;-83
2022/05/03 09:34:25;;;;;;;15.40;11.18;;;;;;;;;;5072938;28;20541;-83
2022/05/03 09:37:10;;;;;;;19.10;12.73;;;;;;;;;;5074575;28;20074;-84
2022/05/03 09:39:47;;;;;;;17.02;11.30;;;;;;;;;;5065733;28;20028;-82
2022/05/03 09:42:16;;;;;;;17.48;11.57;;;;;;;;;;5067682;28;20024;-78
2022/05/03 09:44:50;;;;;;;14.90;10.88;;;;;;;;;;5066408;28;20648;-81
2022/05/03 09:47:17;;;;;;;17.10;12.73;;;;;;;;;;5064447;28;20481;-82
2022/05/03 09:49:43;;;;;;;18.52;11.45;;;;;;;;;;5067529;28;20028;-85
2022/05/03 09:52:29;;;;;;;16.63;11.82;;;;;;;;;;5047643;28;20125;-83
2022/05/03 09:54:59;;;;;;;16.02;10.85;;;;;;;;;;5068568;28;20025;-82
2022/05/03 09:57:27;;;;;;;18.87;11.90;;;;;;;;;;5063705;28;20036;-83
2022/05/03 09:59:55;;;;;;;14.25;10.38;;;;;;;;;;5046412;28;20035;-81
2022/05/03 10:02:25;;;;;;;14.45;9.30;;;;;;;;;;5070850;28;20039;-83
2022/05/03 10:04:53;;;;;;;15.70;11.25;;;;;;;;;;5065991;28;20358;-82
2022/05/03 10:07:20;;;;;;;16.85;9.48;;;;;;;;;;5064767;28;20372;-81
2022/05/03 10:09:46;;;;;;;15.68;10.27;;;;;;;;;;5068264;28;20036;-81
2022/05/03 10:12:13;;;;;;;16.02;10.35;;;;;;;;;;5053772;28;20050;-82
2022/05/03 10:14:40;;;;;;;11.45;9.13;;;;;;;;;;5070648;28;20040;-83
2022/05/03 10:20:40;;;;;;;13.10;8.95;;;;;;;;;;5072062;28;20035;-81
2022/05/03 10:23:25;;;;;;;13.88;9.65;;;;;;;;;;5069346;28;20035;-81
2022/05/03 10:25:58;;;;;;;23.02;13.38;;;;;;;;;;5070362;28;20540;-82
2022/05/03 10:28:25;;;;;;;12.88;7.63;;;;;;;;;;5071753;28;20029;-80
2022/05/03 10:31:05;;;;;;;13.57;8.63;;;;;;;;;;5072722;28;20067;-83
2022/05/03 10:33:38;;;;;;;8.13;6.90;;;;;;;;;;5071618;28;20025;-83
2022/05/03 10:36:32;;;;;;;8.93;6.47;;;;;;;;;;5070558;28;20136;-80
2022/05/03 10:39:20;;;;;;;11.02;8.30;;;;;;;;;;5071785;28;20186;-83
2022/05/03 10:41:56;;;;;;;15.40;8.45;;;;;;;;;;5070720;28;20035;-82
2022/05/03 10:44:40;;;;;;;11.48;8.35;;;;;;;;;;5071074;28;20093;-79
2022/05/03 10:47:10;;;;;;;12.65;7.25;;;;;;;;;;5062105;28;20035;-80
2022/05/03 10:50:17;;;;;;;36.00;20.95;;;;;;;;;;5062652;28;20041;-80
2022/05/03 10:52:55;;;;;;;12.95;9.38;;;;;;;;;;5057707;28;20025;-79
2022/05/03 10:55:22;;;;;;;12.65;8.65;;;;;;;;;;5061497;28;20035;-80
2022/05/03 10:58:28;;;;;;;14.32;9.10;;;;;;;;;;5040991;28;20332;-82
2022/05/03 11:01:33;;;;;;;18.50;12.30;;;;;;;;;;5067749;28;20711;-79
2022/05/03 11:04:07;;;;;;;14.23;9.50;;;;;;;;;;5031242;28;20065;-81
2022/05/03 11:06:39;;;;;;;23.27;8.73;;;;;;;;;;5015867;28;20760;-78
2022/05/03 11:09:09;;;;;;;14.23;8.20;;;;;;;;;;5048840;28;20128;-80
2022/05/03 11:11:52;;;;;;;14.47;9.17;;;;;;;;;;5061115;28;20123;-82
2022/05/03 11:14:18;;;;;;;18.80;9.80;;;;;;;;;;5058354;28;20268;-80
2022/05/03 11:16:52;;;;;;;12.85;8.57;;;;;;;;;;5065752;28;20044;-85
2022/05/03 11:19:19;;;;;;;10.63;8.40;;;;;;;;;;5068374;28;20016;-82
2022/05/03 11:21:47;;;;;;;13.48;8.23;;;;;;;;;;5063817;28;20043;-80
2022/05/03 11:24:23;;;;;;;11.95;7.80;;;;;;;;;;5069044;28;20035;-82
2022/05/03 11:26:50;;;;;;;11.23;8.25;;;;;;;;;;5058756;28;20033;-82
2022/05/03 11:29:16;;;;;;;9.35;8.35;;;;;;;;;;5069126;28;20498;-83
2022/05/03 11:31:47;;;;;;;11.73;8.90;;;;;;;;;;5064722;28;20052;-82
2022/05/03 11:34:13;;;;;;;10.03;9.00;;;;;;;;;;5067095;28;20036;-78
2022/05/03 11:36:44;;;;;;;12.73;8.43;;;;;;;;;;5051238;28;20054;-82
2022/05/03 11:39:10;;;;;;;10.88;9.38;;;;;;;;;;5069094;28;20124;-81
2022/05/03 11:41:37;;;;;;;11.73;8.07;;;;;;;;;;5071452;28;20062;-83
2022/05/03 11:44:03;;;;;;;12.20;7.95;;;;;;;;;;5052151;28;20554;-82
2022/05/03 11:46:29;;;;;;;16.73;8.48;;;;;;;;;;5067145;28;20032;-81
2022/05/03 11:49:00;;;;;;;18.17;8.95;;;;;;;;;;5058561;28;20051;-81
2022/05/03 11:57:30;;;;;;;9.50;7.20;;;;;;;;;;5056329;28;20403;-81
2022/05/03 11:59:58;;;;;;;12.52;8.23;;;;;;;;;;5065504;28;20025;-82
2022/05/03 12:02:34;;;;;;;17.33;9.07;;;;;;;;;;5060397;28;20781;-83
2022/05/03 12:05:07;;;;;;;15.05;9.60;;;;;;;;;;5068258;28;20019;-80
2022/05/03 12:07:39;;;;;;;9.50;8.18;;;;;;;;;;5065739;28;20060;-83
2022/05/03 12:10:29;;;;;;;12.82;8.25;;;;;;;;;;5069681;28;20032;-81
2022/05/03 12:13:17;;;;;;;18.10;7.80;;;;;;;;;;5068895;28;20042;-81
2022/05/03 12:15:49;;;;;;;10.20;7.53;;;;;;;;;;5061475;28;20106;-82
2022/05/03 12:18:20;;;;;;;18.27;8.40;;;;;;;;;;5062309;28;20154;-80
2022/05/03 12:20:53;;;;;;;12.20;7.20;;;;;;;;;;5061309;28;20056;-82
2022/05/03 12:23:38;;;;;;;9.07;6.25;;;;;;;;;;5066508;28;20103;-82
2022/05/03 12:26:20;;;;;;;10.23;7.10;;;;;;;;;;5064441;28;20094;-81
2022/05/03 12:28:59;;;;;;;8.30;6.68;;;;;;;;;;5064032;28;20039;-84
2022/05/03 12:31:52;;;;;;;19.25;7.50;;;;;;;;;;5062984;28;20552;-84
2022/05/03 12:34:25;;;;;;;9.85;7.18;;;;;;;;;;5057085;28;20028;-84
2022/05/03 12:37:01;;;;;;;10.00;6.80;;;;;;;;;;5059926;28;20047;-83
2022/05/03 12:39:29;;;;;;;13.52;6.32;;;;;;;;;;5065729;28;20082;-80
2022/05/03 12:42:00;;;;;;;9.15;6.25;;;;;;;;;;5062110;28;20059;-81
2022/05/03 12:44:28;;;;;;;9.98;6.88;;;;;;;;;;5061160;28;20437;-82
2022/05/03 12:47:06;;;;;;;10.93;6.55;;;;;;;;;;5048772;28;20040;-83
2022/05/03 12:49:33;;;;;;;8.90;6.88;;;;;;;;;;5063881;28;20400;-83
2022/05/03 12:51:59;;;;;;;9.63;7.47;;;;;;;;;;5058714;28;20025;-84
2022/05/03 12:54:25;;;;;;;13.93;6.88;;;;;;;;;;5066886;28;20476;-82
2022/05/03 12:59:36;;;;;;;7.40;5.88;;;;;;;;;;5073056;28;20032;-81
2022/05/03 13:02:03;;;;;;;7.65;6.05;;;;;;;;;;5064841;28;20041;-85
2022/05/03 13:04:29;;;;;;;18.55;6.78;;;;;;;;;;5063557;28;20062;-83
2022/05/03 13:06:57;;;;;;;6.10;5.50;;;;;;;;;;5070550;28;20391;-82
2022/05/03 13:09:23;;;;;;;7.88;6.47;;;;;;;;;;5073295;28;20469;-86
2022/05/03 13:11:49;;;;;;;20.65;6.80;;;;;;;;;;5065687;28;20064;-81
2022/05/03 13:14:16;;;;;;;12.02;6.72;;;;;;;;;;5060161;28;20029;-81
2022/05/03 13:16:41;;;;;;;14.23;7.90;;;;;;;;;;5065213;28;20109;-82
2022/05/03 13:19:07;;;;;;;7.75;6.28;;;;;;;;;;5067739;28;20024;-83
2022/05/03 13:21:36;;;;;;;11.15;6.68;;;;;;;;;;5059947;28;20515;-80
2022/05/03 13:24:11;;;;;;;9.15;6.20;;;;;;;;;;5064494;28;20258;-82
2022/05/03 13:26:38;;;;;;;11.90;6.50;;;;;;;;;;5069929;28;20357;-82
2022/05/03 13:29:08;;;;;;;8.02;6.18;;;;;;;;;;5066451;28;20021;-83
2022/05/03 13:31:34;;;;;;;8.75;6.40;;;;;;;;;;5071293;28;20024;-83
2022/05/03 13:33:59;;;;;;;11.05;6.13;;;;;;;;;;5070924;28;20129;-83
2022/05/03 13:41:58;;;;;;;6.20;5.05;;;;;;;;;;5076304;28;20533;-83
2022/05/03 13:44:27;;;;;;;7.53;6.13;;;;;;;;;;5072453;28;20020;-81
2022/05/03 13:47:08;;;;;;;8.48;5.55;;;;;;;;;;5070547;28;20032;-86
2022/05/03 13:49:34;;;;;;;6.68;5.28;;;;;;;;;;5074798;28;20044;-83
2022/05/03 13:52:00;;;;;;;8.07;5.55;;;;;;;;;;5060829;28;20044;-80
2022/05/03 13:54:26;;;;;;;8.60;5.65;;;;;;;;;;5067829;28;20044;-80
2022/05/03 13:56:53;;;;;;;10.70;6.18;;;;;;;;;;5067595;28;20032;-81
2022/05/03 13:59:25;;;;;;;11.20;6.03;;;;;;;;;;5073526;28;20543;-83
2022/05/03 14:01:51;;;;;;;9.93;5.93;;;;;;;;;;5060269;28;20020;-85
2022/05/03 14:04:17;;;;;;;6.10;5.50;;;;;;;;;;5071848;28;20029;-84
2022/05/03 14:06:43;;;;;;;12.65;6.78;;;;;;;;;;5069743;28;20036;-85
2022/05/03 14:09:08;;;;;;;23.02;6.53;;;;;;;;;;5073204;28;20082;-85
2022/05/03 14:11:37;;;;;;;13.43;6.05;;;;;;;;;;5074661;28;20469;-84
2022/05/03 14:14:03;;;;;;;8.93;4.90;;;;;;;;;;5075676;28;20063;-84
2022/05/03 14:16:32;;;;;;;5.43;4.50;;;;;;;;;;5070553;28;20151;-81
2022/05/03 14:18:59;;;;;;;6.25;5.13;;;;;;;;;;5067746;28;20021;-83
2022/05/03 14:21:25;;;;;;;7.20;5.68;;;;;;;;;;5062972;28;20029;-84
2022/05/03 14:23:51;;;;;;;9.63;7.03;;;;;;;;;;5071032;28;20039;-83
2022/05/03 14:26:17;;;;;;;10.82;6.32;;;;;;;;;;5065319;28;20279;-84
2022/05/03 14:28:44;;;;;;;6.57;5.90;;;;;;;;;;5071442;28;20054;-85
2022/05/03 14:31:11;;;;;;;8.23;5.35;;;;;;;;;;5070439;28;20029;-84
2022/05/03 14:33:36;;;;;;;9.95;5.97;;;;;;;;;;5071724;28;20424;-83
2022/05/03 14:36:02;;;;;;;7.35;5.93;;;;;;;;;;5074471;28;20035;-84
2022/05/03 14:38:28;;;;;;;6.35;5.75;;;;;;;;;;5070284;28;20040;-82
2022/05/03 14:40:53;;;;;;;9.43;6.30;;;;;;;;;;5071003;28;20035;-83
2022/05/03 14:43:25;;;;;;;8.68;5.93;;;;;;;;;;5066161;28;20027;-84
2022/05/03 14:45:51;;;;;;;7.97;5.60;;;;;;;;;;5061593;28;20038;-85
2022/05/03 14:48:16;;;;;;;7.95;5.80;;;;;;;;;;5075393;28;20036;-85
2022/05/03 14:50:42;;;;;;;9.43;6.03;;;;;;;;;;5055424;28;20029;-85
2022/05/03 14:53:10;;;;;;;10.57;5.95;;;;;;;;;;5072494;28;20396;-81
2022/05/03 14:55:39;;;;;;;9.60;7.18;;;;;;;;;;5072281;28;20041;-83
2022/05/03 15:03:35;;;;;;;9.05;6.15;;;;;;;;;;5070790;28;20388;-85
2022/05/03 15:06:00;;;;;;;8.90;6.55;;;;;;;;;;5073618;28;20021;-88
2022/05/03 15:08:26;;;;;;;10.68;6.75;;;;;;;;;;5075793;28;20032;-85
2022/05/03 15:10:51;;;;;;;9.65;6.43;;;;;;;;;;5076441;28;20039;-84
2022/05/03 15:13:17;;;;;;;13.18;7.20;;;;;;;;;;5076218;28;20031;-85
2022/05/03 15:15:45;;;;;;;11.77;7.05;;;;;;;;;;5077328;28;20052;-82
2022/05/03 15:18:17;;;;;;;13.80;7.18;;;;;;;;;;5076109;28;20456;-85
2022/05/03 15:20:43;;;;;;;20.65;7.53;;;;;;;;;;5077975;28;20036;-86
2022/05/03 15:25:53;;;;;;;14.00;7.82;;;;;;;;;;5077441;28;20054;-87
2022/05/03 15:28:20;;;;;;;19.05;7.72;;;;;;;;;;5074549;28;20041;-82
2022/05/03 15:30:50;;;;;;;13.05;8.00;;;;;;;;;;5053836;28;20044;-81
2022/05/03 15:33:16;;;;;;;12.43;8.13;;;;;;;;;;5070117;28;20028;-84
2022/05/03 15:35:42;;;;;;;8.07;6.90;;;;;;;;;;5070764;28;20598;-83